Relevés horaires Beauvechain (Belgique)


Relevés horaires à Beauvechain - Dimanche 26 Nov. 2017
Heure UTC1 Température [°C] Vent [km/h] Hum. [%] Pres.4 [hPa] Visi. [Km] Nébu. [octa] Préc.5 [mm] Cond.
2m. Res. Ros. Dir.2 Vit. Moy. Raf.3
23:00 2.7 -0.3 0.3 SO 11.1 -- 14.8 84 1025(0.0/3h) 20 -- -- --
22:00 2.1 -0.1 0.2 SO 7.4 -- 9.3 87 1025.2(0.0/3h) 20 -- -- --
21:00 2.3 0.1 0.1 SSO 7.4 -- 13.0 85 1025.2(0.0/3h) 20 -- -- --
20:00 2.7 0.6 0.4 SO 7.4 -- 13.0 85 1025.2(0.4/3h) 20 -- -- --
19:00 3.7 1.3 0.6 SO 9.3 -- 13.0 80 1025(0.6/3h) 20 -- -- --
18:00 4.6 2.3 1.0 OSO 9.3 -- 16.7 77 1025(1.1/3h) 20 -- -- --
17:00 4.8 2.6 1.1 OSO 9.3 -- 11.1 77 1024.7(1.0/3h) 20 -- -- --
16:00 4.8 3.1 1.7 OSO 7.4 -- 13.0 80 1024.4(0.8/3h) 20 -- -- --
15:00 5.1 4 1.7 OSO 5.6 -- 16.7 79 1023.8(0.4/3h) 20 -- -- --
14:00 5.5 3.4 1.7 OSO 9.3 -- 16.7 76 1023.6(0.3/3h) 20 -- -- --
13:00 5.4 2.9 1.6 OSO 11.1 -- 16.7 76 1023.5(0.4/3h) 20 -- -- --
12:00 5.0 2.4 1.4 OSO 11.1 -- 18.5 77 1023.3(0.8/3h) 20 -- -- --
11:00 4.8 2.2 1.8 OSO 11.1 -- 18.5 81 1023.2(1.0/3h) 20 -- -- --
10:00 3.4 0.1 0.9 SO 13.0 -- 18.5 84 1023.1(1.3/3h) 20 -- -- --
09:00 2.4 -0.7 0.2 SO 11.1 -- 16.7 85 1022.7(1.2/3h) 20 -- -- --
08:00 1.6 -1.7 -0.1 SO 11.1 -- 16.7 88 1022.2(1.1/3h) 20 -- -- --
07:00 1.6 -1.7 -0.1 SO 11.1 13.0 16.7 88 1021.8(0.6/3h) 20 -- -- --
06:00 1.7 -1.5 -0.1 SO 11.1 -- 20.4 88 1021.5(0.3/3h) 20 -- -- --
05:00 1.7 -1.5 -0.1 SO 11.1 -- 14.8 88 1021.2(0.1/3h) 20 -- -- --
04:00 1.7 -1.5 -0.4 SO 11.1 -- 14.8 86 1021.2(0.6/3h) 20 -- -- --
03:00 1.3 -1.6 -0.6 SO 9.3 -- 20.4 87 1021.1(0.6/3h) 20 -- -- --
02:00 1.5 -0.8 -0.6 SO 7.4 -- 14.8 86 1021(0.9/3h) 20 -- -- --
01:00 2.3 -0.8 -0.1 SO 11.1 -- 20.4 84 1020.5(0.7/3h) 20 -- -- --
00:00 2.2 -0.5 0.1 SO 9.3 -- 16.7 86 1020.3(0.8/3h) 20 -- -- --

1 Coordinated Universal Time. Actuellement il est 00:00 locale et 22:00 UTC.

2 Le vent souffle depuis la direction indiquée vers la direction oposée.

3 Les rafales max. sont disponible 40 min après l'heure du relevé.

4 Pour les stations d'altitude (plus de 600m) le géopotentiel du niveau le plus proche de la pression obligatoire est indiqué.

5 Les stations disposant d'un diffuseur peuvent indiquer "trace". Cela signifie que des précipitations ont touchés le sol mais que la quantité est inférieure à 0.1 mm.

Récapitulatif de la journée
Température [°C] Vent [km/h] Ensoleillement4 [h] Precipitations totale5 [mm] Pression [Hpa]
Min1 Max.2 Moy.3 Max. Min Max.
1.2 5.6 13 20.4 0 h 0 min 0 1020.3 1025.2

1 Température minimale relevée entre 18:00 UTC la veille et 18:00 UTC le jour donné.

2 Température maximale relevée entre 06:00 UTC le jour donné et 06:00 UTC le lendemain.

3 Vent moyen de la journée basé sur les relevés horaires.

4 Ensoleillement en heures relevé entre 06:00 UTC la veille et 06:00 UTC le jour donné.

5 Précipitations totales tombées entre 06:00 UTC la jour donné et 06:00 UTC le lendemain.

Graphiques horaires